createdAt,value
2022-07-26T00:01:27.998Z,47.40
2022-07-26T00:04:01.679Z,47.58
2022-07-26T00:06:30.363Z,47.47
2022-07-26T00:08:58.842Z,47.59
2022-07-26T00:11:28.905Z,47.52
2022-07-26T00:13:57.286Z,47.77
2022-07-26T00:16:25.866Z,47.93
2022-07-26T00:18:54.503Z,47.59
2022-07-26T00:21:23.338Z,47.73
2022-07-26T00:23:51.984Z,47.68
2022-07-26T00:26:20.563Z,47.86
2022-07-26T00:28:49.045Z,47.81
2022-07-26T00:31:17.624Z,48.04
2022-07-26T00:33:46.316Z,47.85
2022-07-26T00:36:15.102Z,48.12
2022-07-26T00:38:43.685Z,47.92
2022-07-26T00:41:12.683Z,47.93
2022-07-26T00:44:00.388Z,48.17
2022-07-26T00:46:49.332Z,48.27
2022-07-26T00:49:18.008Z,48.32
2022-07-26T00:51:46.705Z,48.18
2022-07-26T00:54:17.379Z,48.21
2022-07-26T00:56:46.355Z,48.37
2022-07-26T00:59:14.669Z,48.53
2022-07-26T01:01:43.211Z,48.44
2022-07-26T01:04:12.001Z,48.63
2022-07-26T01:06:41.208Z,48.50
2022-07-26T01:09:10.903Z,48.59
2022-07-26T01:11:39.507Z,48.54
2022-07-26T01:14:08.114Z,48.75
2022-07-26T01:16:36.807Z,48.69
2022-07-26T01:19:05.668Z,48.75
2022-07-26T01:21:34.485Z,48.72
2022-07-26T01:24:03.346Z,48.95
2022-07-26T01:26:31.957Z,48.97
2022-07-26T01:29:00.643Z,48.83
2022-07-26T01:31:29.378Z,49.01
2022-07-26T01:33:57.706Z,48.88
2022-07-26T01:36:26.068Z,48.94
2022-07-26T01:38:54.538Z,48.98
2022-07-26T01:41:37.514Z,48.98
2022-07-26T01:44:08.486Z,49.14
2022-07-26T01:46:37.390Z,49.01
2022-07-26T01:49:08.737Z,48.95
2022-07-26T01:51:37.187Z,49.06
2022-07-26T01:54:06.204Z,49.34
2022-07-26T01:56:34.668Z,49.43
2022-07-26T01:59:03.786Z,49.30
2022-07-26T02:01:39.321Z,49.60
2022-07-26T02:04:28.944Z,49.32
2022-07-26T02:06:57.262Z,49.56
2022-07-26T02:09:25.920Z,49.43
2022-07-26T02:11:56.201Z,49.66
2022-07-26T02:14:25.819Z,49.79
2022-07-26T02:17:00.245Z,49.76
2022-07-26T02:19:29.149Z,49.54
2022-07-26T02:21:57.975Z,49.62
2022-07-26T02:24:30.747Z,49.72
2022-07-26T02:27:00.182Z,49.80
2022-07-26T02:29:29.591Z,49.98
2022-07-26T02:31:58.280Z,49.75
2022-07-26T02:34:28.969Z,49.99
2022-07-26T02:36:59.821Z,50.11
2022-07-26T02:39:28.191Z,50.14
2022-07-26T02:41:58.636Z,50.28
2022-07-26T02:44:28.597Z,50.26
2022-07-26T02:46:56.895Z,50.37
2022-07-26T02:49:25.455Z,50.32
2022-07-26T02:51:53.841Z,50.40
2022-07-26T02:54:22.102Z,51.19
2022-07-26T02:56:50.502Z,51.38
2022-07-26T02:59:19.172Z,51.53
2022-07-26T03:01:47.688Z,51.70
2022-07-26T03:04:16.210Z,51.99
2022-07-26T03:06:44.486Z,52.40
2022-07-26T03:09:12.863Z,52.97
2022-07-26T03:11:41.355Z,53.09
2022-07-26T03:14:10.924Z,53.47
2022-07-26T03:16:39.583Z,53.41
2022-07-26T03:19:07.886Z,53.60
2022-07-26T03:21:36.405Z,54.17
2022-07-26T03:24:05.531Z,54.55
2022-07-26T03:26:34.484Z,54.96
2022-07-26T03:29:02.684Z,55.07
2022-07-26T03:31:31.283Z,55.48
2022-07-26T03:34:03.103Z,55.75
2022-07-26T03:36:32.198Z,56.16
2022-07-26T03:39:00.814Z,56.18
2022-07-26T03:41:31.745Z,56.09
2022-07-26T03:43:59.963Z,56.35
2022-07-26T03:46:28.501Z,56.59
2022-07-26T03:48:57.008Z,56.60
2022-07-26T03:51:25.642Z,56.98
2022-07-26T03:53:54.055Z,57.26
2022-07-26T03:56:34.694Z,57.46
2022-07-26T03:59:06.603Z,57.59
2022-07-26T04:01:37.582Z,57.78
2022-07-26T04:04:06.402Z,57.84
2022-07-26T04:06:38.752Z,58.20
2022-07-26T04:09:07.996Z,58.24
2022-07-26T04:11:36.842Z,58.78
2022-07-26T04:14:05.554Z,58.90
2022-07-26T04:16:34.618Z,58.92
2022-07-26T04:19:03.811Z,59.33
2022-07-26T04:21:32.948Z,59.46
2022-07-26T04:24:01.598Z,59.53
2022-07-26T04:26:30.179Z,59.82
2022-07-26T04:28:58.868Z,60.04
2022-07-26T04:31:27.201Z,60.14
2022-07-26T04:34:02.619Z,60.17
2022-07-26T04:36:31.220Z,60.45
2022-07-26T04:38:59.413Z,60.78
2022-07-26T04:41:28.133Z,60.65
2022-07-26T04:43:56.642Z,60.85
2022-07-26T04:46:25.403Z,61.13
2022-07-26T04:48:54.046Z,60.99
2022-07-26T04:51:22.337Z,61.15
2022-07-26T04:53:50.638Z,61.48
2022-07-26T04:56:19.228Z,61.45
2022-07-26T04:58:47.597Z,61.74
2022-07-26T05:01:15.946Z,61.73
2022-07-26T05:03:44.390Z,61.89
2022-07-26T05:06:12.737Z,62.08
2022-07-26T05:08:43.395Z,62.27
2022-07-26T05:11:11.747Z,62.56
2022-07-26T05:13:40.535Z,62.57
2022-07-26T05:16:11.941Z,62.73
2022-07-26T05:18:46.060Z,62.77
2022-07-26T05:21:19.089Z,62.91
2022-07-26T05:23:47.770Z,62.83
2022-07-26T05:26:16.155Z,63.00
2022-07-26T05:28:44.633Z,63.13
2022-07-26T05:31:13.236Z,63.45
2022-07-26T05:33:41.525Z,63.47
2022-07-26T05:36:10.180Z,63.62
2022-07-26T05:38:38.965Z,63.55
2022-07-26T05:41:07.394Z,63.91
2022-07-26T05:43:40.731Z,64.04
2022-07-26T05:46:12.034Z,64.02
2022-07-26T05:48:40.832Z,64.27
2022-07-26T05:51:10.482Z,64.15
2022-07-26T05:53:38.930Z,64.32
2022-07-26T05:56:07.548Z,64.20
2022-07-26T05:58:36.533Z,64.47
2022-07-26T06:01:04.947Z,64.62
2022-07-26T06:03:33.507Z,64.30
2022-07-26T06:06:01.790Z,64.45
2022-07-26T06:08:30.287Z,64.80
2022-07-26T06:10:58.831Z,65.01
2022-07-26T06:13:27.036Z,65.09
2022-07-26T06:15:55.502Z,64.97
2022-07-26T06:18:24.387Z,65.11
2022-07-26T06:20:53.008Z,65.09
2022-07-26T06:23:31.939Z,65.01
2022-07-26T06:26:05.114Z,65.23
2022-07-26T06:28:34.188Z,65.25
2022-07-26T06:31:02.678Z,65.22
2022-07-26T06:33:31.247Z,65.30
2022-07-26T06:35:59.942Z,65.55
2022-07-26T06:38:28.928Z,65.51
2022-07-26T06:40:57.336Z,65.29
2022-07-26T06:43:25.993Z,65.28
2022-07-26T06:45:54.526Z,65.36
2022-07-26T06:48:23.258Z,65.39
2022-07-26T06:50:51.711Z,65.54
2022-07-26T06:53:20.220Z,65.73
2022-07-26T06:55:48.630Z,65.59
2022-07-26T06:58:17.301Z,65.68
2022-07-26T07:00:45.584Z,65.47
2022-07-26T07:03:14.209Z,65.52
2022-07-26T07:05:47.933Z,65.64
2022-07-26T07:08:18.538Z,65.80
2022-07-26T07:10:48.507Z,65.79
2022-07-26T07:13:19.861Z,65.60
2022-07-26T07:15:48.151Z,65.76
2022-07-26T07:18:16.503Z,65.96
2022-07-26T07:20:44.980Z,65.84
2022-07-26T07:23:13.359Z,65.87
2022-07-26T07:25:41.839Z,65.92
2022-07-26T07:28:13.705Z,66.11
2022-07-26T07:30:43.614Z,65.97
2022-07-26T07:33:22.689Z,66.04
2022-07-26T07:35:52.441Z,66.03
2022-07-26T07:38:22.389Z,66.02
2022-07-26T07:40:51.364Z,65.91
2022-07-26T07:43:19.953Z,65.69
2022-07-26T07:45:48.690Z,65.90
2022-07-26T07:48:17.606Z,66.01
2022-07-26T07:50:46.136Z,66.14
2022-07-26T07:53:14.483Z,66.12
2022-07-26T07:55:44.165Z,66.11
2022-07-26T07:58:17.346Z,66.15
2022-07-26T08:00:48.071Z,66.16
2022-07-26T08:03:18.073Z,66.18
2022-07-26T08:05:49.888Z,66.13
2022-07-26T08:08:22.279Z,65.90
2022-07-26T08:10:52.885Z,65.88
2022-07-26T08:13:23.123Z,65.89
2022-07-26T08:15:52.986Z,65.91
2022-07-26T08:18:23.050Z,65.93
2022-07-26T08:20:54.038Z,65.71
2022-07-26T08:23:22.777Z,65.53
2022-07-26T08:42:31.307Z,65.04
2022-07-26T08:45:00.152Z,64.90
2022-07-26T08:47:37.473Z,64.94
2022-07-26T08:50:09.156Z,64.48
2022-07-26T08:52:41.390Z,64.53
2022-07-26T08:55:10.513Z,64.38
2022-07-26T08:57:38.881Z,64.34
2022-07-26T09:00:30.069Z,64.05
2022-07-26T09:03:02.056Z,63.71
2022-07-26T09:05:31.986Z,63.39
2022-07-26T09:08:01.678Z,63.27
2022-07-26T09:10:39.013Z,62.88
2022-07-26T09:13:07.889Z,62.45
2022-07-26T09:15:36.502Z,62.18
2022-07-26T09:18:05.023Z,62.05
2022-07-26T09:20:33.513Z,61.47
2022-07-26T09:23:08.437Z,61.53
2022-07-26T09:25:39.491Z,61.60
2022-07-26T09:28:31.892Z,61.24
2022-07-26T09:31:04.266Z,60.85
2022-07-26T09:33:53.222Z,60.67
2022-07-26T09:36:22.890Z,60.42
2022-07-26T09:38:53.960Z,60.42
2022-07-26T09:41:34.785Z,60.14
2022-07-26T09:44:20.178Z,59.75
2022-07-26T09:46:57.529Z,59.56
2022-07-26T09:49:40.467Z,59.19
2022-07-26T09:52:21.422Z,58.93
2022-07-26T09:54:50.209Z,58.65
2022-07-26T09:57:20.870Z,58.26
2022-07-26T09:59:49.333Z,58.41
2022-07-26T10:02:18.019Z,58.14
2022-07-26T10:04:46.604Z,57.76
2022-07-26T10:07:15.804Z,57.72
2022-07-26T10:10:01.100Z,57.27
2022-07-26T10:12:32.660Z,56.56
2022-07-26T10:15:01.221Z,56.57
2022-07-26T10:17:31.566Z,56.27
2022-07-26T10:20:17.660Z,56.02
2022-07-26T10:22:52.874Z,56.09
2022-07-26T10:25:21.185Z,55.71
2022-07-26T10:27:58.030Z,55.08
2022-07-26T10:30:34.947Z,55.06
2022-07-26T10:33:09.793Z,54.59
2022-07-26T10:35:43.403Z,54.36
2022-07-26T10:38:22.244Z,54.74
2022-07-26T10:41:02.619Z,54.41
2022-07-26T10:43:41.252Z,54.00
2022-07-26T10:46:16.649Z,53.92
2022-07-26T10:49:08.816Z,53.71
2022-07-26T10:51:39.644Z,53.57
2022-07-26T10:54:14.274Z,53.14
2022-07-26T10:56:43.173Z,52.82
2022-07-26T10:59:11.382Z,52.69
2022-07-26T11:01:42.327Z,52.25
2022-07-26T11:04:25.024Z,52.04
2022-07-26T11:06:53.476Z,51.91
2022-07-26T11:09:23.643Z,51.50
2022-07-26T11:11:52.465Z,51.44
2022-07-26T11:14:20.713Z,51.47
2022-07-26T11:16:50.648Z,51.47
2022-07-26T11:19:24.707Z,51.43
2022-07-26T11:21:59.290Z,51.52
2022-07-26T11:24:29.342Z,51.48
2022-07-26T11:27:04.164Z,51.68
2022-07-26T11:29:38.938Z,51.39
2022-07-26T11:32:22.183Z,50.89
2022-07-26T11:35:05.544Z,51.05
2022-07-26T11:37:34.332Z,50.81
2022-07-26T11:40:02.610Z,50.55
2022-07-26T11:42:31.397Z,50.21
2022-07-26T11:45:00.297Z,50.15
2022-07-26T11:47:28.664Z,50.06
2022-07-26T11:50:21.603Z,50.18
2022-07-26T11:52:53.243Z,49.53
2022-07-26T11:55:31.586Z,49.54
2022-07-26T11:58:07.165Z,50.02
2022-07-26T12:00:35.919Z,49.73
2022-07-26T12:03:04.302Z,48.95
2022-07-26T12:05:33.494Z,48.96
2022-07-26T12:08:05.123Z,48.59
2022-07-26T12:10:34.252Z,48.02
2022-07-26T12:13:13.282Z,47.42
2022-07-26T12:15:52.945Z,47.31
2022-07-26T12:18:26.285Z,47.46
2022-07-26T12:21:08.929Z,47.04
2022-07-26T12:23:49.547Z,47.29
2022-07-26T12:26:30.842Z,47.43
2022-07-26T12:29:19.939Z,46.85
2022-07-26T12:32:08.958Z,46.76
2022-07-26T12:34:42.321Z,46.61
2022-07-26T12:37:13.414Z,46.42
2022-07-26T12:39:42.765Z,46.08
2022-07-26T12:42:22.381Z,46.04
2022-07-26T12:44:51.724Z,45.91
2022-07-26T12:47:20.472Z,45.67
2022-07-26T12:49:49.872Z,45.31
2022-07-26T12:52:22.860Z,45.21
2022-07-26T12:54:53.187Z,45.15
2022-07-26T12:57:22.533Z,45.09
2022-07-26T12:59:50.995Z,45.11
2022-07-26T13:02:20.557Z,45.18
2022-07-26T13:04:49.221Z,45.24
2022-07-26T13:07:18.818Z,45.14
2022-07-26T13:09:48.024Z,44.83
2022-07-26T13:12:16.951Z,44.61
2022-07-26T13:14:45.168Z,44.16
2022-07-26T13:17:14.008Z,44.17
2022-07-26T13:19:43.025Z,44.20
2022-07-26T13:22:11.306Z,43.61
2022-07-26T13:24:40.387Z,43.27
2022-07-26T13:27:09.480Z,42.97
2022-07-26T13:29:38.299Z,42.79
2022-07-26T13:32:07.158Z,42.82
2022-07-26T13:34:35.842Z,42.65
2022-07-26T13:37:08.330Z,42.65
2022-07-26T13:39:37.098Z,42.71
2022-07-26T13:42:05.628Z,42.78
2022-07-26T13:44:34.099Z,42.85
2022-07-26T13:47:02.928Z,42.82
2022-07-26T13:49:31.507Z,42.52
2022-07-26T13:52:00.332Z,42.65
2022-07-26T13:54:31.273Z,42.99
2022-07-26T13:57:02.243Z,43.02
2022-07-26T13:59:31.101Z,42.36
2022-07-26T14:02:00.331Z,41.87
2022-07-26T14:04:29.192Z,41.94
2022-07-26T14:06:57.569Z,41.58
2022-07-26T14:09:26.069Z,41.06
2022-07-26T14:11:54.629Z,41.14
2022-07-26T14:14:23.695Z,41.16
2022-07-26T14:16:52.465Z,41.05
2022-07-26T14:19:20.920Z,41.02
2022-07-26T14:21:59.699Z,40.70
2022-07-26T14:24:29.726Z,40.81
2022-07-26T14:26:59.706Z,41.07
2022-07-26T14:29:30.788Z,41.34
2022-07-26T14:31:59.263Z,41.33
2022-07-26T14:34:27.786Z,41.11
2022-07-26T14:36:56.504Z,40.37
2022-07-26T14:39:24.808Z,40.28
2022-07-26T14:41:53.223Z,40.40
2022-07-26T14:44:21.981Z,40.56
2022-07-26T14:46:50.262Z,40.69
2022-07-26T14:49:18.626Z,40.63
2022-07-26T14:51:47.919Z,40.50
2022-07-26T14:54:16.882Z,40.47
2022-07-26T14:56:45.214Z,40.24
2022-07-26T14:59:14.121Z,40.09
2022-07-26T15:01:42.566Z,39.99
2022-07-26T15:04:11.709Z,40.24
2022-07-26T15:06:40.526Z,40.23
2022-07-26T15:09:08.882Z,40.69
2022-07-26T15:11:37.318Z,40.79
2022-07-26T15:14:06.452Z,40.99
2022-07-26T15:16:35.107Z,41.13
2022-07-26T15:19:03.583Z,41.11
2022-07-26T15:21:32.064Z,40.92
2022-07-26T15:24:01.878Z,40.88
2022-07-26T15:26:30.304Z,40.93
2022-07-26T15:28:58.949Z,41.34
2022-07-26T15:31:36.759Z,41.36
2022-07-26T15:34:09.059Z,41.23
2022-07-26T15:36:37.950Z,40.98
2022-07-26T15:39:16.704Z,41.11
2022-07-26T15:41:48.689Z,41.23
2022-07-26T15:44:19.011Z,41.29
2022-07-26T15:46:48.624Z,41.44
2022-07-26T15:49:18.358Z,41.51
2022-07-26T15:51:47.597Z,41.75
2022-07-26T15:54:16.641Z,41.50
2022-07-26T15:56:45.262Z,41.57
2022-07-26T15:59:13.586Z,41.00
2022-07-26T16:01:42.176Z,40.67
2022-07-26T16:04:13.084Z,40.84
2022-07-26T16:06:42.199Z,41.00
2022-07-26T16:09:17.846Z,40.75
2022-07-26T16:11:48.714Z,41.03
2022-07-26T16:14:17.678Z,41.28
2022-07-26T16:16:46.091Z,41.42
2022-07-26T16:19:14.951Z,41.24
2022-07-26T16:21:44.180Z,41.88
2022-07-26T16:24:12.911Z,42.03
2022-07-26T16:26:42.648Z,42.36
2022-07-26T16:29:11.437Z,42.40
2022-07-26T16:31:43.246Z,42.97
2022-07-26T16:34:11.798Z,42.93
2022-07-26T16:36:40.283Z,43.35
2022-07-26T16:39:09.219Z,43.70
2022-07-26T16:41:38.073Z,43.90
2022-07-26T16:44:06.378Z,44.40
2022-07-26T16:46:34.885Z,44.56
2022-07-26T16:49:04.728Z,44.88
2022-07-26T16:51:33.815Z,44.90
2022-07-26T16:54:02.187Z,45.29
2022-07-26T16:56:30.489Z,45.27
2022-07-26T16:58:58.765Z,45.62
2022-07-26T17:01:27.264Z,45.60
2022-07-26T17:03:55.906Z,45.56
2022-07-26T17:06:24.494Z,45.87
2022-07-26T17:08:53.609Z,45.90
2022-07-26T17:11:22.322Z,45.78
2022-07-26T17:13:50.773Z,45.82
2022-07-26T17:16:24.194Z,46.11
2022-07-26T17:18:54.986Z,45.98
2022-07-26T17:21:23.585Z,45.89
2022-07-26T17:23:52.500Z,45.71
2022-07-26T17:26:21.164Z,45.96
2022-07-26T17:28:49.808Z,45.68
2022-07-26T17:31:18.050Z,45.80
2022-07-26T17:33:46.989Z,46.08
2022-07-26T17:36:23.704Z,46.01
2022-07-26T17:38:53.573Z,46.02
2022-07-26T17:41:24.338Z,45.87
2022-07-26T17:44:04.938Z,46.46
2022-07-26T17:46:33.568Z,46.47
2022-07-26T17:49:02.208Z,46.55
2022-07-26T17:51:30.770Z,46.72
2022-07-26T17:53:59.074Z,47.15
2022-07-26T17:56:28.295Z,47.21
2022-07-26T17:58:56.607Z,47.24
2022-07-26T18:01:25.320Z,47.44
2022-07-26T18:03:54.465Z,47.83
2022-07-26T18:06:23.187Z,47.78
2022-07-26T18:08:51.438Z,47.91
2022-07-26T18:11:20.168Z,48.04
2022-07-26T18:13:48.898Z,48.10
2022-07-26T18:16:17.337Z,48.21
2022-07-26T18:18:45.868Z,48.31
2022-07-26T18:21:14.309Z,48.32
2022-07-26T18:24:00.233Z,48.69
2022-07-26T18:26:31.255Z,48.62
2022-07-26T18:28:59.682Z,48.70
2022-07-26T18:31:27.955Z,48.80
2022-07-26T18:33:56.783Z,48.79
2022-07-26T18:36:25.437Z,49.06
2022-07-26T18:38:53.660Z,49.27
2022-07-26T18:41:22.192Z,49.03
2022-07-26T18:43:50.492Z,49.20
2022-07-26T18:46:18.961Z,49.42
2022-07-26T18:48:47.417Z,49.75
2022-07-26T18:51:17.189Z,49.69
2022-07-26T18:53:45.538Z,49.83
2022-07-26T18:56:14.252Z,49.86
2022-07-26T18:58:42.686Z,49.99
2022-07-26T19:01:10.997Z,49.98
2022-07-26T19:03:39.766Z,50.20
2022-07-26T19:06:09.321Z,50.31
2022-07-26T19:08:37.736Z,50.33
2022-07-26T19:11:06.964Z,50.36
2022-07-26T19:13:35.378Z,50.59
2022-07-26T19:16:03.733Z,50.53
2022-07-26T19:18:32.852Z,50.47
2022-07-26T19:21:01.130Z,50.57
2022-07-26T19:23:29.664Z,50.65
2022-07-26T19:25:58.665Z,50.75
2022-07-26T19:28:27.111Z,50.69
2022-07-26T19:30:55.579Z,50.77
2022-07-26T19:33:24.677Z,50.79
2022-07-26T19:35:53.629Z,50.91
2022-07-26T19:38:22.071Z,50.95
2022-07-26T19:40:51.050Z,51.10
2022-07-26T19:43:19.386Z,51.13
2022-07-26T19:45:50.010Z,51.26
2022-07-26T19:48:19.107Z,51.22
2022-07-26T19:50:47.347Z,51.46
2022-07-26T19:53:15.784Z,51.61
2022-07-26T19:55:44.571Z,51.65
2022-07-26T19:58:12.973Z,51.65
2022-07-26T20:00:41.434Z,51.84
2022-07-26T20:03:10.343Z,51.99
2022-07-26T20:05:39.788Z,52.08
2022-07-26T20:08:08.011Z,52.18
2022-07-26T20:10:36.691Z,52.19
2022-07-26T20:13:05.153Z,52.43
2022-07-26T20:15:33.443Z,52.51
2022-07-26T20:18:02.190Z,52.55
2022-07-26T20:20:31.017Z,52.49
2022-07-26T20:22:59.243Z,52.70
2022-07-26T20:25:27.733Z,52.76
2022-07-26T20:27:56.220Z,53.04
2022-07-26T20:30:24.441Z,52.89
2022-07-26T20:32:52.840Z,53.09
2022-07-26T20:35:21.118Z,53.25
2022-07-26T20:37:49.319Z,53.27
2022-07-26T20:40:18.007Z,53.29
2022-07-26T20:42:47.684Z,53.36
2022-07-26T20:45:18.602Z,53.45
2022-07-26T20:47:46.974Z,53.59
2022-07-26T20:50:15.480Z,53.82
2022-07-26T20:52:43.856Z,53.84
2022-07-26T20:55:12.319Z,53.96
2022-07-26T20:57:41.617Z,54.13
2022-07-26T21:00:11.832Z,54.27
2022-07-26T21:02:40.294Z,54.22
2022-07-26T21:05:09.237Z,54.33
2022-07-26T21:07:57.335Z,54.39
2022-07-26T21:10:29.372Z,54.52
2022-07-26T21:13:00.457Z,54.65
2022-07-26T21:15:30.301Z,54.63
2022-07-26T21:17:58.642Z,54.72
2022-07-26T21:20:26.986Z,54.91
2022-07-26T21:23:08.164Z,54.96
2022-07-26T21:25:43.750Z,55.14
2022-07-26T21:28:12.053Z,55.09
2022-07-26T21:30:40.449Z,55.23
2022-07-26T21:33:08.783Z,55.22
2022-07-26T21:35:37.082Z,55.30
2022-07-26T21:38:05.538Z,55.48
2022-07-26T21:40:34.996Z,55.50
2022-07-26T21:43:03.319Z,55.49
2022-07-26T21:45:31.925Z,55.61
2022-07-26T21:48:00.413Z,55.53
2022-07-26T21:50:28.621Z,55.65
2022-07-26T21:52:56.861Z,55.64
2022-07-26T21:55:25.312Z,55.75
2022-07-26T21:57:53.442Z,55.85
2022-07-26T22:00:21.659Z,55.85
2022-07-26T22:02:50.126Z,55.86
2022-07-26T22:05:38.242Z,55.91
2022-07-26T22:08:12.467Z,55.99
2022-07-26T22:10:44.173Z,56.19
2022-07-26T22:13:13.975Z,56.12
2022-07-26T22:15:43.704Z,56.19
2022-07-26T22:18:12.989Z,56.28
2022-07-26T22:20:42.683Z,56.26
2022-07-26T22:23:12.871Z,56.37
2022-07-26T22:25:41.621Z,56.34
2022-07-26T22:28:10.887Z,56.37
2022-07-26T22:30:40.553Z,56.53
2022-07-26T22:33:09.082Z,56.63
2022-07-26T22:35:37.636Z,56.60
2022-07-26T22:38:08.073Z,56.65
2022-07-26T22:40:37.802Z,56.76
2022-07-26T22:43:08.506Z,56.87
2022-07-26T22:45:37.822Z,56.86
2022-07-26T22:48:07.008Z,56.87
2022-07-26T22:50:35.744Z,57.02
2022-07-26T22:53:04.924Z,57.19
2022-07-26T22:55:33.500Z,57.18
2022-07-26T22:58:02.085Z,57.16
2022-07-26T23:00:30.787Z,57.32
2022-07-26T23:02:59.252Z,57.35
2022-07-26T23:05:45.460Z,57.50
2022-07-26T23:11:05.651Z,57.67
2022-07-26T23:13:34.626Z,57.74
2022-07-26T23:16:03.129Z,57.76
2022-07-26T23:18:32.137Z,57.91
2022-07-26T23:21:00.660Z,58.07
2022-07-26T23:23:30.088Z,57.99
2022-07-26T23:25:59.916Z,58.11
2022-07-26T23:28:37.602Z,58.17
2022-07-26T23:31:08.321Z,58.33
2022-07-26T23:33:53.369Z,58.27
2022-07-26T23:36:24.510Z,58.45
2022-07-26T23:38:54.432Z,58.61
2022-07-26T23:41:23.719Z,58.68
2022-07-26T23:43:53.086Z,58.73
2022-07-26T23:46:22.070Z,58.78
2022-07-26T23:48:51.200Z,58.93
2022-07-26T23:51:19.953Z,59.02
2022-07-26T23:53:48.669Z,59.03
2022-07-26T23:56:17.937Z,59.07
2022-07-26T23:58:46.725Z,59.29
